createdAt,value
2022-11-08T00:01:07.942Z,0.14
2022-11-08T00:06:28.491Z,-0.51
2022-11-08T00:11:49.160Z,0.75
2022-11-08T00:16:51.336Z,1.80
2022-11-08T00:21:53.435Z,1.71
2022-11-08T00:26:55.570Z,1.84
2022-11-08T00:31:57.689Z,0.96
2022-11-08T00:37:00.080Z,0.09
2022-11-08T00:42:02.578Z,-0.89
2022-11-08T00:47:05.113Z,2.01
2022-11-08T00:52:07.360Z,1.17
2022-11-08T00:57:09.566Z,1.94
2022-11-08T01:02:11.881Z,1.91
2022-11-08T01:07:14.157Z,2.04
2022-11-08T01:12:16.350Z,1.54
2022-11-08T01:17:18.511Z,1.63
2022-11-08T01:22:20.732Z,1.94
2022-11-08T01:27:22.945Z,2.09
2022-11-08T01:32:25.162Z,2.10
2022-11-08T01:37:27.427Z,2.00
2022-11-08T01:42:31.056Z,1.21
2022-11-08T01:47:33.337Z,-0.60
2022-11-08T01:52:45.403Z,-0.88
2022-11-08T01:57:58.203Z,1.69
2022-11-08T02:03:01.538Z,-0.02
2022-11-08T02:08:42.885Z,2.19
2022-11-08T02:13:45.150Z,2.13
2022-11-08T02:18:48.301Z,1.38
2022-11-08T02:24:00.305Z,2.17
2022-11-08T02:29:25.471Z,2.23
2022-11-08T02:34:42.983Z,2.19
2022-11-08T02:39:46.672Z,2.16
2022-11-08T02:44:48.889Z,0.61
2022-11-08T02:49:51.660Z,1.47
2022-11-08T02:54:53.922Z,1.66
2022-11-08T02:59:56.205Z,2.22
2022-11-08T03:04:58.319Z,1.96
2022-11-08T03:10:00.522Z,0.59
2022-11-08T03:15:03.079Z,2.25
2022-11-08T03:20:06.781Z,1.12
2022-11-08T03:25:09.186Z,1.67
2022-11-08T03:30:11.620Z,2.26
2022-11-08T03:35:15.661Z,2.03
2022-11-08T03:40:18.943Z,2.29
2022-11-08T03:45:21.107Z,2.16
2022-11-08T03:50:23.398Z,1.81
2022-11-08T03:55:27.291Z,2.32
2022-11-08T04:00:30.362Z,1.51
2022-11-08T04:05:32.740Z,1.83
2022-11-08T04:10:35.112Z,2.22
2022-11-08T04:15:37.375Z,1.92
2022-11-08T04:21:02.334Z,2.38
2022-11-08T04:26:07.244Z,2.29
2022-11-08T04:31:20.381Z,2.17
2022-11-08T04:36:22.644Z,2.42
2022-11-08T04:41:26.185Z,2.43
2022-11-08T04:46:29.543Z,2.43
2022-11-08T04:51:33.489Z,2.45
2022-11-08T04:56:35.742Z,2.21
2022-11-08T05:01:38.012Z,2.16
2022-11-08T05:06:40.328Z,2.50
2022-11-08T05:11:42.498Z,2.51
2022-11-08T05:16:44.755Z,2.52
2022-11-08T05:22:05.431Z,2.27
2022-11-08T05:27:07.692Z,2.39
2022-11-08T05:32:09.954Z,2.48
2022-11-08T05:37:12.204Z,2.04
2022-11-08T05:42:17.388Z,2.58
2022-11-08T05:47:19.720Z,-0.03
2022-11-08T05:52:23.267Z,2.50
2022-11-08T05:57:25.577Z,1.32
2022-11-08T06:02:30.051Z,2.42
2022-11-08T06:07:32.482Z,1.97
2022-11-08T06:12:35.048Z,2.67
2022-11-08T06:17:37.383Z,2.29
2022-11-08T06:22:40.174Z,1.92
2022-11-08T06:27:42.446Z,2.50
2022-11-08T06:32:44.709Z,2.63
2022-11-08T06:37:46.887Z,2.78
2022-11-08T06:42:49.101Z,2.77
2022-11-08T06:47:58.492Z,2.82
2022-11-08T06:53:02.948Z,2.58
2022-11-08T06:58:05.865Z,2.58
2022-11-08T07:03:08.153Z,2.15
2022-11-08T07:08:10.513Z,2.72
2022-11-08T07:13:14.020Z,2.90
2022-11-08T07:18:18.198Z,2.67
2022-11-08T07:23:20.681Z,1.95
2022-11-08T07:28:23.115Z,2.86
2022-11-08T07:33:28.456Z,2.31
2022-11-08T07:38:31.971Z,2.28
2022-11-08T07:43:34.291Z,2.02
2022-11-08T07:48:52.053Z,0.56
2022-11-08T07:53:54.217Z,1.10
2022-11-08T07:58:56.458Z,2.58
2022-11-08T08:03:58.541Z,2.53
2022-11-08T08:09:00.655Z,2.77
2022-11-08T08:14:02.957Z,1.26
2022-11-08T08:19:05.184Z,0.16
2022-11-08T08:24:07.485Z,2.98
2022-11-08T08:29:09.647Z,2.32
2022-11-08T08:34:11.828Z,2.97
2022-11-08T08:39:14.178Z,3.19
2022-11-08T08:44:16.454Z,3.22
2022-11-08T08:49:18.577Z,2.83
2022-11-08T08:54:22.752Z,3.13
2022-11-08T09:04:52.447Z,2.94
2022-11-08T09:09:55.023Z,3.47
2022-11-08T09:14:57.431Z,3.35
2022-11-08T09:19:59.922Z,3.50
2022-11-08T09:25:02.422Z,3.10
2022-11-08T09:30:06.653Z,0.61
2022-11-08T09:35:08.919Z,0.62
2022-11-08T09:40:18.516Z,3.29
2022-11-08T09:45:32.872Z,3.69
2022-11-08T09:51:04.560Z,3.24
2022-11-08T09:56:16.180Z,3.58
2022-11-08T10:01:21.122Z,3.39
2022-11-08T10:06:46.791Z,3.63
2022-11-08T10:11:57.333Z,3.25
2022-11-08T10:17:08.462Z,3.64
2022-11-08T10:22:44.090Z,3.47
2022-11-08T10:27:46.333Z,3.54
2022-11-08T10:32:52.141Z,2.37
2022-11-08T10:37:56.525Z,1.43
2022-11-08T10:43:12.850Z,3.74
2022-11-08T10:48:15.497Z,1.74
2022-11-08T10:53:26.472Z,3.81
2022-11-08T10:58:31.548Z,3.78
2022-11-08T11:03:34.551Z,3.62
2022-11-08T11:08:48.777Z,3.86
2022-11-08T11:14:21.944Z,3.89
2022-11-08T11:19:29.003Z,3.54
2022-11-08T11:24:31.433Z,3.74
2022-11-08T11:29:38.715Z,3.89
2022-11-08T11:34:48.970Z,3.31
2022-11-08T11:40:35.027Z,3.83
2022-11-08T11:45:59.646Z,3.63
2022-11-08T11:51:02.394Z,3.65
2022-11-08T11:56:14.324Z,3.95
2022-11-08T12:01:33.405Z,3.69
2022-11-08T12:07:05.047Z,3.19
2022-11-08T12:12:16.858Z,3.95
2022-11-08T12:17:28.918Z,3.85
2022-11-08T12:23:08.642Z,4.03
2022-11-08T12:28:24.583Z,3.62
2022-11-08T12:33:42.440Z,4.01
2022-11-08T12:39:23.125Z,3.92
2022-11-08T12:44:31.603Z,4.01
2022-11-08T12:49:55.603Z,4.05
2022-11-08T12:55:04.305Z,4.01
2022-11-08T13:00:18.574Z,3.77
2022-11-08T13:05:28.070Z,3.58
2022-11-08T13:10:47.870Z,4.03
2022-11-08T13:16:18.047Z,3.45
2022-11-08T13:21:41.278Z,3.46
2022-11-08T13:26:44.034Z,3.54
2022-11-08T13:31:49.094Z,4.00
2022-11-08T13:37:21.538Z,4.05
2022-11-08T13:42:23.880Z,4.00
2022-11-08T13:47:50.733Z,2.42
2022-11-08T13:53:06.470Z,4.04
2022-11-08T13:58:35.816Z,1.33
2022-11-08T14:03:48.322Z,4.06
2022-11-08T14:08:59.734Z,4.05
2022-11-08T14:14:05.738Z,4.06
2022-11-08T14:19:20.014Z,3.21
2022-11-08T14:25:13.488Z,-0.08
2022-11-08T14:30:24.477Z,1.57
2022-11-08T14:35:26.986Z,3.63
2022-11-08T14:40:29.961Z,2.87
2022-11-08T14:45:33.455Z,3.20
2022-11-08T14:50:37.610Z,1.80
2022-11-08T14:55:42.413Z,3.65
2022-11-08T15:00:47.019Z,3.20
2022-11-08T15:05:57.858Z,3.55
2022-11-08T15:11:01.781Z,4.11
2022-11-08T15:16:05.854Z,1.67
2022-11-08T15:21:23.645Z,4.18
2022-11-08T15:26:28.524Z,2.24
2022-11-08T15:31:34.719Z,4.14
2022-11-08T15:36:37.616Z,4.15
2022-11-08T15:41:41.672Z,1.51
2022-11-08T15:46:44.370Z,3.31
2022-11-08T15:51:51.085Z,1.21
2022-11-08T15:56:54.879Z,0.79
2022-11-08T16:02:02.292Z,2.15
2022-11-08T16:07:04.666Z,2.08
2022-11-08T16:12:07.043Z,1.60
2022-11-08T16:17:14.321Z,3.57
2022-11-08T16:22:19.246Z,3.13
2022-11-08T16:27:21.707Z,1.47
2022-11-08T16:32:24.099Z,2.16
2022-11-08T16:37:26.467Z,3.72
2022-11-08T16:42:28.948Z,1.77
2022-11-08T16:47:36.976Z,4.31
2022-11-08T16:52:41.984Z,1.28
2022-11-08T16:57:44.728Z,2.43
2022-11-08T17:02:52.811Z,4.09
2022-11-08T17:07:56.173Z,4.34
2022-11-08T17:12:58.492Z,3.40
2022-11-08T17:18:01.070Z,0.06
2022-11-08T17:23:03.487Z,3.60
2022-11-08T17:28:05.981Z,2.46
2022-11-08T17:33:08.443Z,1.49
2022-11-08T17:38:10.812Z,2.93
2022-11-08T17:43:14.960Z,1.74
2022-11-08T17:48:17.367Z,3.58
2022-11-08T17:53:20.005Z,4.47
2022-11-08T17:58:23.021Z,0.93
2022-11-08T18:03:26.519Z,3.60
2022-11-08T18:08:30.235Z,0.91
2022-11-08T18:13:35.330Z,2.35
2022-11-08T18:18:40.914Z,4.27
2022-11-08T18:23:44.700Z,3.07
2022-11-08T18:28:47.208Z,4.55
2022-11-08T18:33:50.897Z,2.60
2022-11-08T18:38:53.533Z,1.32
2022-11-08T18:43:56.894Z,4.48
2022-11-08T18:48:59.438Z,1.21
2022-11-08T18:54:02.081Z,4.11
2022-11-08T18:59:04.678Z,3.92
2022-11-08T19:04:08.192Z,2.68
2022-11-08T19:09:10.588Z,4.21
2022-11-08T19:14:13.026Z,4.00
2022-11-08T19:19:15.405Z,4.72
2022-11-08T19:24:17.790Z,2.65
2022-11-08T19:29:20.936Z,4.18
2022-11-08T19:34:23.277Z,2.24
2022-11-08T19:39:25.815Z,2.69
2022-11-08T19:44:28.306Z,4.06
2022-11-08T19:49:30.957Z,4.84
2022-11-08T19:54:33.172Z,4.58
2022-11-08T19:59:37.181Z,3.62
2022-11-08T20:04:40.125Z,3.33
2022-11-08T20:09:42.795Z,4.92
2022-11-08T20:14:45.062Z,1.08
2022-11-08T20:19:47.257Z,4.82
2022-11-08T20:24:49.643Z,4.72
2022-11-08T20:29:52.166Z,4.87
2022-11-08T20:34:55.216Z,4.58
2022-11-08T20:39:57.668Z,4.24
2022-11-08T20:44:59.916Z,3.61
2022-11-08T20:50:02.625Z,3.94
2022-11-08T20:55:05.984Z,4.98
2022-11-08T21:00:13.432Z,4.71
2022-11-08T21:05:16.322Z,5.01
2022-11-08T21:10:44.148Z,4.67
2022-11-08T21:15:48.242Z,4.40
2022-11-08T21:20:50.922Z,5.33
2022-11-08T21:25:53.175Z,4.55
2022-11-08T21:30:55.448Z,4.66
2022-11-08T21:35:58.317Z,4.85
2022-11-08T21:41:07.873Z,4.86
2022-11-08T21:46:24.933Z,4.72
2022-11-08T21:51:29.468Z,4.14
2022-11-08T21:56:33.864Z,4.12
2022-11-08T22:01:36.172Z,5.20
2022-11-08T22:06:38.473Z,4.58
2022-11-08T22:11:42.012Z,5.24
2022-11-08T22:16:44.228Z,3.78
2022-11-08T22:21:47.727Z,2.58
2022-11-08T22:26:51.535Z,4.86
2022-11-08T22:31:55.123Z,5.42
2022-11-08T22:36:57.273Z,5.45
2022-11-08T22:41:59.564Z,4.94
2022-11-08T22:47:02.054Z,5.15
2022-11-08T22:52:04.331Z,5.16
2022-11-08T22:57:06.593Z,4.27
2022-11-08T23:02:08.765Z,5.16
2022-11-08T23:07:10.950Z,4.89
2022-11-08T23:12:31.533Z,4.97
2022-11-08T23:17:33.765Z,5.40
2022-11-08T23:22:54.519Z,4.67
2022-11-08T23:28:15.219Z,5.58
2022-11-08T23:33:17.746Z,5.58
2022-11-08T23:38:22.723Z,5.11
2022-11-08T23:43:43.501Z,5.39
2022-11-08T23:48:45.721Z,5.07
2022-11-08T23:53:47.867Z,5.04
2022-11-08T23:58:51.629Z,5.25
